sensor_id;sensor_type;location;lat;lon;timestamp;temperature;humidity
16846;DHT22;8539;53.188;8.696;2024-01-07T00:00:28;-1.20;99.90
16846;DHT22;8539;53.188;8.696;2024-01-07T00:02:56;-1.20;99.90
16846;DHT22;8539;53.188;8.696;2024-01-07T00:05:22;-1.20;99.90
16846;DHT22;8539;53.188;8.696;2024-01-07T00:07:48;-1.20;99.90
16846;DHT22;8539;53.188;8.696;2024-01-07T00:10:16;-1.20;99.90
16846;DHT22;8539;53.188;8.696;2024-01-07T00:12:42;-1.20;99.90
16846;DHT22;8539;53.188;8.696;2024-01-07T00:15:10;-1.20;99.90
16846;DHT22;8539;53.188;8.696;2024-01-07T00:17:36;-1.30;99.90
16846;DHT22;8539;53.188;8.696;2024-01-07T00:20:02;-1.20;99.90
16846;DHT22;8539;53.188;8.696;2024-01-07T00:22:29;-1.20;99.90
16846;DHT22;8539;53.188;8.696;2024-01-07T00:24:55;-1.20;99.90
16846;DHT22;8539;53.188;8.696;2024-01-07T00:27:21;-1.20;99.90
16846;DHT22;8539;53.188;8.696;2024-01-07T00:29:47;-1.20;99.90
16846;DHT22;8539;53.188;8.696;2024-01-07T00:32:13;-1.20;99.90
16846;DHT22;8539;53.188;8.696;2024-01-07T00:34:40;-1.20;99.90
16846;DHT22;8539;53.188;8.696;2024-01-07T00:37:06;-1.20;99.90
16846;DHT22;8539;53.188;8.696;2024-01-07T00:39:32;-1.20;99.90
16846;DHT22;8539;53.188;8.696;2024-01-07T00:41:58;-1.20;99.90
16846;DHT22;8539;53.188;8.696;2024-01-07T00:44:24;-1.30;99.90
16846;DHT22;8539;53.188;8.696;2024-01-07T00:46:50;-1.30;99.90
16846;DHT22;8539;53.188;8.696;2024-01-07T00:49:16;-1.30;99.90
16846;DHT22;8539;53.188;8.696;2024-01-07T00:51:42;-1.40;99.90
16846;DHT22;8539;53.188;8.696;2024-01-07T00:54:09;-1.40;99.90
16846;DHT22;8539;53.188;8.696;2024-01-07T00:56:34;-1.40;99.90
16846;DHT22;8539;53.188;8.696;2024-01-07T00:59:00;-1.40;99.90
16846;DHT22;8539;53.188;8.696;2024-01-07T01:01:27;-1.40;99.90
16846;DHT22;8539;53.188;8.696;2024-01-07T01:03:53;-1.40;99.90
16846;DHT22;8539;53.188;8.696;2024-01-07T01:06:19;-1.50;99.90
16846;DHT22;8539;53.188;8.696;2024-01-07T01:08:45;-1.50;99.90
16846;DHT22;8539;53.188;8.696;2024-01-07T01:11:11;-1.50;99.90
16846;DHT22;8539;53.188;8.696;2024-01-07T01:13:37;-1.50;99.90
16846;DHT22;8539;53.188;8.696;2024-01-07T01:16:03;-1.50;99.90
16846;DHT22;8539;53.188;8.696;2024-01-07T01:18:29;-1.50;99.90
16846;DHT22;8539;53.188;8.696;2024-01-07T01:20:56;-1.50;99.90
16846;DHT22;8539;53.188;8.696;2024-01-07T01:23:22;-1.50;99.90
16846;DHT22;8539;53.188;8.696;2024-01-07T01:25:49;-1.50;99.90
16846;DHT22;8539;53.188;8.696;2024-01-07T01:28:15;-1.60;99.90
16846;DHT22;8539;53.188;8.696;2024-01-07T01:30:41;-1.50;99.90
16846;DHT22;8539;53.188;8.696;2024-01-07T01:33:07;-1.60;99.90
16846;DHT22;8539;53.188;8.696;2024-01-07T01:35:33;-1.50;99.90
16846;DHT22;8539;53.188;8.696;2024-01-07T01:37:59;-1.50;99.90
16846;DHT22;8539;53.188;8.696;2024-01-07T01:40:25;-1.50;99.90
16846;DHT22;8539;53.188;8.696;2024-01-07T01:42:51;-1.60;99.90
16846;DHT22;8539;53.188;8.696;2024-01-07T01:45:18;-1.60;99.90
16846;DHT22;8539;53.188;8.696;2024-01-07T01:47:46;-1.60;99.90
16846;DHT22;8539;53.188;8.696;2024-01-07T01:50:13;-1.60;99.90
16846;DHT22;8539;53.188;8.696;2024-01-07T01:52:40;-1.60;99.90
16846;DHT22;8539;53.188;8.696;2024-01-07T01:55:06;-1.60;99.90
16846;DHT22;8539;53.188;8.696;2024-01-07T01:57:33;-1.60;99.90
16846;DHT22;8539;53.188;8.696;2024-01-07T02:00:03;-1.60;99.90
16846;DHT22;8539;53.188;8.696;2024-01-07T02:02:31;-1.60;99.90
16846;DHT22;8539;53.188;8.696;2024-01-07T02:05:03;-1.70;99.90
16846;DHT22;8539;53.188;8.696;2024-01-07T02:07:32;-1.70;99.90
16846;DHT22;8539;53.188;8.696;2024-01-07T02:09:59;-1.70;99.90
16846;DHT22;8539;53.188;8.696;2024-01-07T02:12:26;-1.70;99.90
16846;DHT22;8539;53.188;8.696;2024-01-07T02:14:52;-1.70;99.90
16846;DHT22;8539;53.188;8.696;2024-01-07T02:17:19;-1.70;99.90
16846;DHT22;8539;53.188;8.696;2024-01-07T02:19:46;-1.70;99.90
16846;DHT22;8539;53.188;8.696;2024-01-07T02:22:12;-1.70;99.90
16846;DHT22;8539;53.188;8.696;2024-01-07T02:24:39;-1.70;99.90
16846;DHT22;8539;53.188;8.696;2024-01-07T02:27:05;-1.70;99.90
16846;DHT22;8539;53.188;8.696;2024-01-07T02:29:31;-1.70;99.90
16846;DHT22;8539;53.188;8.696;2024-01-07T02:31:57;-1.70;99.90
16846;DHT22;8539;53.188;8.696;2024-01-07T02:34:23;-1.70;99.90
16846;DHT22;8539;53.188;8.696;2024-01-07T02:36:49;-1.70;99.90
16846;DHT22;8539;53.188;8.696;2024-01-07T02:39:15;-1.70;99.90
16846;DHT22;8539;53.188;8.696;2024-01-07T02:41:41;-1.70;99.90
16846;DHT22;8539;53.188;8.696;2024-01-07T02:44:06;-1.60;99.90
16846;DHT22;8539;53.188;8.696;2024-01-07T02:46:32;-1.60;99.90
16846;DHT22;8539;53.188;8.696;2024-01-07T02:48:58;-1.60;99.90
16846;DHT22;8539;53.188;8.696;2024-01-07T02:51:24;-1.60;99.90
16846;DHT22;8539;53.188;8.696;2024-01-07T02:53:50;-1.60;99.90
16846;DHT22;8539;53.188;8.696;2024-01-07T02:56:16;-1.50;99.90
16846;DHT22;8539;53.188;8.696;2024-01-07T02:58:42;-1.50;99.90
16846;DHT22;8539;53.188;8.696;2024-01-07T03:01:09;-1.50;99.90
16846;DHT22;8539;53.188;8.696;2024-01-07T03:03:37;-1.50;99.90
16846;DHT22;8539;53.188;8.696;2024-01-07T03:06:03;-1.50;99.90
16846;DHT22;8539;53.188;8.696;2024-01-07T03:08:30;-1.50;99.90
16846;DHT22;8539;53.188;8.696;2024-01-07T03:10:56;-1.50;99.90
16846;DHT22;8539;53.188;8.696;2024-01-07T03:13:21;-1.50;99.90
16846;DHT22;8539;53.188;8.696;2024-01-07T03:15:47;-1.50;99.90
16846;DHT22;8539;53.188;8.696;2024-01-07T03:18:13;-1.50;99.90
16846;DHT22;8539;53.188;8.696;2024-01-07T03:20:39;-1.50;99.90
16846;DHT22;8539;53.188;8.696;2024-01-07T03:23:05;-1.40;99.90
16846;DHT22;8539;53.188;8.696;2024-01-07T03:25:31;-1.40;99.90
16846;DHT22;8539;53.188;8.696;2024-01-07T03:27:57;-1.40;99.90
16846;DHT22;8539;53.188;8.696;2024-01-07T03:30:23;-1.40;99.90
16846;DHT22;8539;53.188;8.696;2024-01-07T03:32:49;-1.40;99.90
16846;DHT22;8539;53.188;8.696;2024-01-07T03:35:15;-1.40;99.90
16846;DHT22;8539;53.188;8.696;2024-01-07T03:37:41;-1.40;99.90
16846;DHT22;8539;53.188;8.696;2024-01-07T03:40:13;-1.50;99.90
16846;DHT22;8539;53.188;8.696;2024-01-07T03:42:39;-1.50;99.90
16846;DHT22;8539;53.188;8.696;2024-01-07T03:45:05;-1.40;99.90
16846;DHT22;8539;53.188;8.696;2024-01-07T03:47:31;-1.40;99.90
16846;DHT22;8539;53.188;8.696;2024-01-07T03:49:57;-1.50;99.90
16846;DHT22;8539;53.188;8.696;2024-01-07T03:52:23;-1.40;99.90
16846;DHT22;8539;53.188;8.696;2024-01-07T03:54:49;-1.50;99.90
16846;DHT22;8539;53.188;8.696;2024-01-07T03:57:15;-1.50;99.90
16846;DHT22;8539;53.188;8.696;2024-01-07T03:59:41;-1.50;99.90
16846;DHT22;8539;53.188;8.696;2024-01-07T04:02:07;-1.50;99.90
16846;DHT22;8539;53.188;8.696;2024-01-07T04:04:33;-1.50;99.90
16846;DHT22;8539;53.188;8.696;2024-01-07T04:06:59;-1.50;99.90
16846;DHT22;8539;53.188;8.696;2024-01-07T04:09:25;-1.50;99.90
16846;DHT22;8539;53.188;8.696;2024-01-07T04:11:51;-1.50;99.90
16846;DHT22;8539;53.188;8.696;2024-01-07T04:14:17;-1.50;99.90
16846;DHT22;8539;53.188;8.696;2024-01-07T04:16:43;-1.50;99.90
16846;DHT22;8539;53.188;8.696;2024-01-07T04:19:09;-1.50;99.90
16846;DHT22;8539;53.188;8.696;2024-01-07T04:21:34;-1.40;99.90
16846;DHT22;8539;53.188;8.696;2024-01-07T04:24:01;-1.50;99.90
16846;DHT22;8539;53.188;8.696;2024-01-07T04:26:27;-1.50;99.90
16846;DHT22;8539;53.188;8.696;2024-01-07T04:28:53;-1.50;99.90
16846;DHT22;8539;53.188;8.696;2024-01-07T04:31:19;-1.50;99.90
16846;DHT22;8539;53.188;8.696;2024-01-07T04:33:45;-1.50;99.90
16846;DHT22;8539;53.188;8.696;2024-01-07T04:36:11;-1.50;99.90
16846;DHT22;8539;53.188;8.696;2024-01-07T04:38:37;-1.50;99.90
16846;DHT22;8539;53.188;8.696;2024-01-07T04:41:03;-1.50;99.90
16846;DHT22;8539;53.188;8.696;2024-01-07T04:43:33;-1.50;99.90
16846;DHT22;8539;53.188;8.696;2024-01-07T04:46:00;-1.50;99.90
16846;DHT22;8539;53.188;8.696;2024-01-07T04:48:26;-1.50;99.90
16846;DHT22;8539;53.188;8.696;2024-01-07T04:50:52;-1.60;99.90
16846;DHT22;8539;53.188;8.696;2024-01-07T04:53:18;-1.60;99.90
16846;DHT22;8539;53.188;8.696;2024-01-07T04:55:44;-1.60;99.90
16846;DHT22;8539;53.188;8.696;2024-01-07T04:58:09;-1.70;99.90
16846;DHT22;8539;53.188;8.696;2024-01-07T05:00:35;-1.70;99.90
16846;DHT22;8539;53.188;8.696;2024-01-07T05:03:01;-1.70;99.90
16846;DHT22;8539;53.188;8.696;2024-01-07T05:05:27;-1.70;99.90
16846;DHT22;8539;53.188;8.696;2024-01-07T05:07:53;-1.70;99.90
16846;DHT22;8539;53.188;8.696;2024-01-07T05:10:19;-1.80;99.90
16846;DHT22;8539;53.188;8.696;2024-01-07T05:12:46;-1.80;99.90
16846;DHT22;8539;53.188;8.696;2024-01-07T05:15:12;-1.80;99.90
16846;DHT22;8539;53.188;8.696;2024-01-07T05:17:37;-1.80;99.90
16846;DHT22;8539;53.188;8.696;2024-01-07T05:20:04;-1.90;99.90
16846;DHT22;8539;53.188;8.696;2024-01-07T05:22:31;-1.90;99.90
16846;DHT22;8539;53.188;8.696;2024-01-07T05:24:58;-1.80;99.90
16846;DHT22;8539;53.188;8.696;2024-01-07T05:27:23;-1.90;99.90
16846;DHT22;8539;53.188;8.696;2024-01-07T05:29:49;-1.90;99.90
16846;DHT22;8539;53.188;8.696;2024-01-07T05:32:15;-1.90;99.90
16846;DHT22;8539;53.188;8.696;2024-01-07T05:34:41;-1.90;99.90
16846;DHT22;8539;53.188;8.696;2024-01-07T05:37:07;-1.80;99.90
16846;DHT22;8539;53.188;8.696;2024-01-07T05:39:33;-1.90;99.90
16846;DHT22;8539;53.188;8.696;2024-01-07T05:41:59;-1.80;99.90
16846;DHT22;8539;53.188;8.696;2024-01-07T05:44:25;-1.80;99.90
16846;DHT22;8539;53.188;8.696;2024-01-07T05:46:51;-1.80;99.90
16846;DHT22;8539;53.188;8.696;2024-01-07T05:49:17;-1.80;99.90
16846;DHT22;8539;53.188;8.696;2024-01-07T05:51:43;-1.80;99.90
16846;DHT22;8539;53.188;8.696;2024-01-07T05:54:09;-1.70;99.90
16846;DHT22;8539;53.188;8.696;2024-01-07T05:56:39;-1.70;99.90
16846;DHT22;8539;53.188;8.696;2024-01-07T05:59:06;-1.70;99.90
16846;DHT22;8539;53.188;8.696;2024-01-07T06:01:32;-1.60;99.90
16846;DHT22;8539;53.188;8.696;2024-01-07T06:03:58;-1.60;99.90
16846;DHT22;8539;53.188;8.696;2024-01-07T06:06:24;-1.60;99.90
16846;DHT22;8539;53.188;8.696;2024-01-07T06:08:50;-1.60;99.90
16846;DHT22;8539;53.188;8.696;2024-01-07T06:11:16;-1.60;99.90
16846;DHT22;8539;53.188;8.696;2024-01-07T06:13:46;-1.60;99.90
16846;DHT22;8539;53.188;8.696;2024-01-07T06:16:12;-1.60;99.90
16846;DHT22;8539;53.188;8.696;2024-01-07T06:18:38;-1.60;99.90
16846;DHT22;8539;53.188;8.696;2024-01-07T06:21:05;-1.60;99.90
16846;DHT22;8539;53.188;8.696;2024-01-07T06:23:34;-1.60;99.90
16846;DHT22;8539;53.188;8.696;2024-01-07T06:26:04;-1.60;99.90
16846;DHT22;8539;53.188;8.696;2024-01-07T06:28:31;-1.60;99.90
16846;DHT22;8539;53.188;8.696;2024-01-07T06:30:57;-1.60;99.90
16846;DHT22;8539;53.188;8.696;2024-01-07T06:33:23;-1.50;99.90
16846;DHT22;8539;53.188;8.696;2024-01-07T06:35:49;-1.30;99.90
16846;DHT22;8539;53.188;8.696;2024-01-07T06:38:15;-1.50;99.90
16846;DHT22;8539;53.188;8.696;2024-01-07T06:40:41;-1.50;99.90
16846;DHT22;8539;53.188;8.696;2024-01-07T06:43:07;-1.50;99.90
16846;DHT22;8539;53.188;8.696;2024-01-07T06:45:33;-1.50;99.90
16846;DHT22;8539;53.188;8.696;2024-01-07T06:47:59;-1.50;99.90
16846;DHT22;8539;53.188;8.696;2024-01-07T06:50:26;-1.50;99.90
16846;DHT22;8539;53.188;8.696;2024-01-07T06:52:52;-1.50;99.90
16846;DHT22;8539;53.188;8.696;2024-01-07T06:55:18;-1.50;99.90
16846;DHT22;8539;53.188;8.696;2024-01-07T06:57:44;-1.50;99.90
16846;DHT22;8539;53.188;8.696;2024-01-07T07:00:11;-1.50;99.90
16846;DHT22;8539;53.188;8.696;2024-01-07T07:02:37;-1.50;99.90
16846;DHT22;8539;53.188;8.696;2024-01-07T07:05:03;-1.50;99.90
16846;DHT22;8539;53.188;8.696;2024-01-07T07:07:29;-1.50;99.90
16846;DHT22;8539;53.188;8.696;2024-01-07T07:09:55;-1.50;99.90
16846;DHT22;8539;53.188;8.696;2024-01-07T07:12:21;-1.40;99.90
16846;DHT22;8539;53.188;8.696;2024-01-07T07:14:47;-1.40;99.90
16846;DHT22;8539;53.188;8.696;2024-01-07T07:17:14;-1.40;99.90
16846;DHT22;8539;53.188;8.696;2024-01-07T07:19:41;-1.40;99.90
16846;DHT22;8539;53.188;8.696;2024-01-07T07:22:06;-1.30;99.90
16846;DHT22;8539;53.188;8.696;2024-01-07T07:24:32;-1.30;99.90
16846;DHT22;8539;53.188;8.696;2024-01-07T07:26:58;-1.30;99.90
16846;DHT22;8539;53.188;8.696;2024-01-07T07:29:24;-1.30;99.90
16846;DHT22;8539;53.188;8.696;2024-01-07T07:31:50;-1.20;99.90
16846;DHT22;8539;53.188;8.696;2024-01-07T07:34:16;-1.20;99.90
16846;DHT22;8539;53.188;8.696;2024-01-07T07:36:42;-1.10;99.90
16846;DHT22;8539;53.188;8.696;2024-01-07T07:39:10;-1.00;99.90
16846;DHT22;8539;53.188;8.696;2024-01-07T07:41:36;-1.00;99.90
16846;DHT22;8539;53.188;8.696;2024-01-07T07:44:02;-1.00;99.90
16846;DHT22;8539;53.188;8.696;2024-01-07T07:46:29;-0.90;99.90
16846;DHT22;8539;53.188;8.696;2024-01-07T07:48:55;-0.90;99.90
16846;DHT22;8539;53.188;8.696;2024-01-07T07:51:21;-0.90;99.90
16846;DHT22;8539;53.188;8.696;2024-01-07T07:53:46;-0.90;99.90
16846;DHT22;8539;53.188;8.696;2024-01-07T07:56:12;-0.80;99.90
16846;DHT22;8539;53.188;8.696;2024-01-07T07:58:38;-0.80;99.90
16846;DHT22;8539;53.188;8.696;2024-01-07T08:01:04;-0.80;99.90
16846;DHT22;8539;53.188;8.696;2024-01-07T08:03:30;-0.80;99.90
16846;DHT22;8539;53.188;8.696;2024-01-07T08:05:57;-0.80;99.90
16846;DHT22;8539;53.188;8.696;2024-01-07T08:08:23;-0.80;99.90
16846;DHT22;8539;53.188;8.696;2024-01-07T08:10:49;-0.80;99.90
16846;DHT22;8539;53.188;8.696;2024-01-07T08:13:15;-0.80;99.90
16846;DHT22;8539;53.188;8.696;2024-01-07T08:15:41;-0.80;99.90
16846;DHT22;8539;53.188;8.696;2024-01-07T08:18:07;-0.80;99.90
16846;DHT22;8539;53.188;8.696;2024-01-07T08:20:33;-0.80;99.90
16846;DHT22;8539;53.188;8.696;2024-01-07T08:22:59;-0.70;99.90
16846;DHT22;8539;53.188;8.696;2024-01-07T08:25:26;-0.80;99.90
16846;DHT22;8539;53.188;8.696;2024-01-07T08:27:51;-0.80;99.90
16846;DHT22;8539;53.188;8.696;2024-01-07T08:30:17;-0.80;99.90
16846;DHT22;8539;53.188;8.696;2024-01-07T08:32:43;-0.80;99.90
16846;DHT22;8539;53.188;8.696;2024-01-07T08:35:09;-0.70;99.90
16846;DHT22;8539;53.188;8.696;2024-01-07T08:37:35;-0.80;99.90
16846;DHT22;8539;53.188;8.696;2024-01-07T08:40:01;-0.70;99.90
16846;DHT22;8539;53.188;8.696;2024-01-07T08:42:27;-0.70;99.90
16846;DHT22;8539;53.188;8.696;2024-01-07T08:44:56;-0.70;99.90
16846;DHT22;8539;53.188;8.696;2024-01-07T08:47:21;-0.70;99.90
16846;DHT22;8539;53.188;8.696;2024-01-07T08:49:47;-0.70;99.90
16846;DHT22;8539;53.188;8.696;2024-01-07T08:52:13;-0.60;99.90
16846;DHT22;8539;53.188;8.696;2024-01-07T08:54:40;-0.70;99.90
16846;DHT22;8539;53.188;8.696;2024-01-07T08:57:05;-0.70;99.90
16846;DHT22;8539;53.188;8.696;2024-01-07T08:59:31;-0.60;99.90
16846;DHT22;8539;53.188;8.696;2024-01-07T09:01:57;-0.50;99.90
16846;DHT22;8539;53.188;8.696;2024-01-07T09:04:23;-0.60;99.90
16846;DHT22;8539;53.188;8.696;2024-01-07T09:06:49;-0.60;99.90
16846;DHT22;8539;53.188;8.696;2024-01-07T09:09:15;-0.50;99.90
16846;DHT22;8539;53.188;8.696;2024-01-07T09:11:41;-0.60;99.90
16846;DHT22;8539;53.188;8.696;2024-01-07T09:14:07;-0.60;99.90
16846;DHT22;8539;53.188;8.696;2024-01-07T09:16:33;-0.70;99.90
16846;DHT22;8539;53.188;8.696;2024-01-07T09:18:59;-0.70;99.90
16846;DHT22;8539;53.188;8.696;2024-01-07T09:21:25;-0.70;99.90
16846;DHT22;8539;53.188;8.696;2024-01-07T09:23:51;-0.70;99.90
16846;DHT22;8539;53.188;8.696;2024-01-07T09:26:17;-0.80;99.90
16846;DHT22;8539;53.188;8.696;2024-01-07T09:28:43;-0.80;99.90
16846;DHT22;8539;53.188;8.696;2024-01-07T09:31:09;-1.10;99.90
16846;DHT22;8539;53.188;8.696;2024-01-07T09:33:35;-0.80;99.90
16846;DHT22;8539;53.188;8.696;2024-01-07T09:36:01;-0.90;99.90
16846;DHT22;8539;53.188;8.696;2024-01-07T09:38:27;-0.80;99.90
16846;DHT22;8539;53.188;8.696;2024-01-07T09:40:53;-0.80;99.90
16846;DHT22;8539;53.188;8.696;2024-01-07T09:43:21;-0.80;99.90
16846;DHT22;8539;53.188;8.696;2024-01-07T09:45:47;-0.70;99.90
16846;DHT22;8539;53.188;8.696;2024-01-07T09:48:15;-0.70;99.90
16846;DHT22;8539;53.188;8.696;2024-01-07T09:50:41;-0.70;99.90
16846;DHT22;8539;53.188;8.696;2024-01-07T09:53:11;-0.60;99.90
16846;DHT22;8539;53.188;8.696;2024-01-07T09:56:05;-0.60;99.90
16846;DHT22;8539;53.188;8.696;2024-01-07T09:58:33;-0.60;99.90
16846;DHT22;8539;53.188;8.696;2024-01-07T10:00:59;-0.50;99.90
16846;DHT22;8539;53.188;8.696;2024-01-07T10:03:25;-0.50;99.90
16846;DHT22;8539;53.188;8.696;2024-01-07T10:05:52;-0.50;99.90
16846;DHT22;8539;53.188;8.696;2024-01-07T10:08:18;-0.50;99.90
16846;DHT22;8539;53.188;8.696;2024-01-07T10:10:44;-0.50;99.90
16846;DHT22;8539;53.188;8.696;2024-01-07T10:13:10;-0.40;99.90
16846;DHT22;8539;53.188;8.696;2024-01-07T10:15:36;-0.40;99.90
16846;DHT22;8539;53.188;8.696;2024-01-07T10:18:06;-0.40;99.90
16846;DHT22;8539;53.188;8.696;2024-01-07T10:20:33;-0.30;99.90
16846;DHT22;8539;53.188;8.696;2024-01-07T10:23:00;-0.30;99.90
16846;DHT22;8539;53.188;8.696;2024-01-07T10:25:35;-0.30;99.90
16846;DHT22;8539;53.188;8.696;2024-01-07T10:28:04;-0.20;99.90
16846;DHT22;8539;53.188;8.696;2024-01-07T10:30:30;-0.20;99.90
16846;DHT22;8539;53.188;8.696;2024-01-07T10:33:00;-0.10;99.90
16846;DHT22;8539;53.188;8.696;2024-01-07T10:35:36;0.10;99.90
16846;DHT22;8539;53.188;8.696;2024-01-07T10:38:09;0.50;99.90
16846;DHT22;8539;53.188;8.696;2024-01-07T10:40:44;1.00;99.90
16846;DHT22;8539;53.188;8.696;2024-01-07T10:43:12;1.40;99.90
16846;DHT22;8539;53.188;8.696;2024-01-07T10:45:39;1.60;99.90
16846;DHT22;8539;53.188;8.696;2024-01-07T10:48:06;2.10;99.90
16846;DHT22;8539;53.188;8.696;2024-01-07T10:50:33;2.80;99.90
16846;DHT22;8539;53.188;8.696;2024-01-07T10:53:04;3.30;99.90
16846;DHT22;8539;53.188;8.696;2024-01-07T10:55:34;3.70;99.90
16846;DHT22;8539;53.188;8.696;2024-01-07T10:58:03;3.40;99.90
16846;DHT22;8539;53.188;8.696;2024-01-07T11:00:29;2.90;99.90
16846;DHT22;8539;53.188;8.696;2024-01-07T11:08:23;2.80;99.90
16846;DHT22;8539;53.188;8.696;2024-01-07T11:10:57;2.60;99.90
16846;DHT22;8539;53.188;8.696;2024-01-07T11:13:33;2.40;99.90
16846;DHT22;8539;53.188;8.696;2024-01-07T11:16:09;2.20;99.90
16846;DHT22;8539;53.188;8.696;2024-01-07T11:18:45;1.90;99.90
16846;DHT22;8539;53.188;8.696;2024-01-07T11:21:23;1.70;99.90
16846;DHT22;8539;53.188;8.696;2024-01-07T11:23:50;1.60;99.90
16846;DHT22;8539;53.188;8.696;2024-01-07T11:26:19;1.80;99.90
16846;DHT22;8539;53.188;8.696;2024-01-07T11:28:49;1.90;99.90
16846;DHT22;8539;53.188;8.696;2024-01-07T11:31:20;2.10;99.90
16846;DHT22;8539;53.188;8.696;2024-01-07T11:33:50;2.10;99.90
16846;DHT22;8539;53.188;8.696;2024-01-07T11:36:17;1.90;99.90
16846;DHT22;8539;53.188;8.696;2024-01-07T11:38:53;2.00;99.90
16846;DHT22;8539;53.188;8.696;2024-01-07T11:41:21;2.20;99.90
16846;DHT22;8539;53.188;8.696;2024-01-07T11:43:57;2.70;99.90
16846;DHT22;8539;53.188;8.696;2024-01-07T11:46:27;2.90;99.90
16846;DHT22;8539;53.188;8.696;2024-01-07T11:48:57;3.00;99.90
16846;DHT22;8539;53.188;8.696;2024-01-07T11:51:30;2.90;99.90
16846;DHT22;8539;53.188;8.696;2024-01-07T11:54:00;2.70;99.90
16846;DHT22;8539;53.188;8.696;2024-01-07T11:56:27;2.40;99.90
16846;DHT22;8539;53.188;8.696;2024-01-07T11:58:54;2.30;99.90
16846;DHT22;8539;53.188;8.696;2024-01-07T12:01:22;2.10;99.90
16846;DHT22;8539;53.188;8.696;2024-01-07T12:03:48;1.90;99.90
16846;DHT22;8539;53.188;8.696;2024-01-07T12:06:14;1.80;99.90
16846;DHT22;8539;53.188;8.696;2024-01-07T12:08:41;1.70;99.90
16846;DHT22;8539;53.188;8.696;2024-01-07T12:11:07;1.60;99.90
16846;DHT22;8539;53.188;8.696;2024-01-07T12:13:34;1.60;99.90
16846;DHT22;8539;53.188;8.696;2024-01-07T12:16:09;1.60;99.90
16846;DHT22;8539;53.188;8.696;2024-01-07T12:18:41;1.50;99.90
16846;DHT22;8539;53.188;8.696;2024-01-07T12:21:08;1.60;99.90
16846;DHT22;8539;53.188;8.696;2024-01-07T12:23:35;1.60;99.90
16846;DHT22;8539;53.188;8.696;2024-01-07T12:26:10;1.50;99.90
16846;DHT22;8539;53.188;8.696;2024-01-07T12:28:37;1.50;99.90
16846;DHT22;8539;53.188;8.696;2024-01-07T12:31:07;1.70;99.90
16846;DHT22;8539;53.188;8.696;2024-01-07T12:33:34;1.20;99.90
16846;DHT22;8539;53.188;8.696;2024-01-07T12:36:01;1.00;99.90
16846;DHT22;8539;53.188;8.696;2024-01-07T12:38:27;0.90;99.90
16846;DHT22;8539;53.188;8.696;2024-01-07T12:40:54;0.90;99.90
16846;DHT22;8539;53.188;8.696;2024-01-07T12:43:20;0.90;99.90
16846;DHT22;8539;53.188;8.696;2024-01-07T12:45:47;0.80;99.90
16846;DHT22;8539;53.188;8.696;2024-01-07T12:48:14;0.80;99.90
16846;DHT22;8539;53.188;8.696;2024-01-07T12:50:40;0.90;99.90
16846;DHT22;8539;53.188;8.696;2024-01-07T12:53:06;1.00;99.90
16846;DHT22;8539;53.188;8.696;2024-01-07T12:55:32;1.20;99.90
16846;DHT22;8539;53.188;8.696;2024-01-07T12:57:58;1.30;99.90
16846;DHT22;8539;53.188;8.696;2024-01-07T13:00:25;1.50;99.90
16846;DHT22;8539;53.188;8.696;2024-01-07T13:02:52;1.90;99.90
16846;DHT22;8539;53.188;8.696;2024-01-07T13:05:18;2.40;99.90
16846;DHT22;8539;53.188;8.696;2024-01-07T13:07:45;2.80;99.90
16846;DHT22;8539;53.188;8.696;2024-01-07T13:10:12;2.80;99.90
16846;DHT22;8539;53.188;8.696;2024-01-07T13:12:38;2.60;99.90
16846;DHT22;8539;53.188;8.696;2024-01-07T13:15:04;2.40;99.90
16846;DHT22;8539;53.188;8.696;2024-01-07T13:17:30;2.40;99.90
16846;DHT22;8539;53.188;8.696;2024-01-07T13:20:00;2.60;99.90
16846;DHT22;8539;53.188;8.696;2024-01-07T13:22:29;2.90;99.90
16846;DHT22;8539;53.188;8.696;2024-01-07T13:24:55;3.40;99.90
16846;DHT22;8539;53.188;8.696;2024-01-07T13:27:22;3.70;99.90
16846;DHT22;8539;53.188;8.696;2024-01-07T13:29:49;3.90;99.90
16846;DHT22;8539;53.188;8.696;2024-01-07T13:32:15;3.90;99.90
16846;DHT22;8539;53.188;8.696;2024-01-07T13:34:44;3.70;99.90
16846;DHT22;8539;53.188;8.696;2024-01-07T13:37:10;3.40;99.90
16846;DHT22;8539;53.188;8.696;2024-01-07T13:39:36;3.10;99.90
16846;DHT22;8539;53.188;8.696;2024-01-07T13:42:02;2.80;99.90
16846;DHT22;8539;53.188;8.696;2024-01-07T13:44:28;2.70;99.90
16846;DHT22;8539;53.188;8.696;2024-01-07T13:46:54;3.00;99.90
16846;DHT22;8539;53.188;8.696;2024-01-07T13:49:20;3.50;99.90
16846;DHT22;8539;53.188;8.696;2024-01-07T13:51:46;3.90;99.90
16846;DHT22;8539;53.188;8.696;2024-01-07T13:54:15;4.20;99.90
16846;DHT22;8539;53.188;8.696;2024-01-07T13:56:42;4.50;99.90
16846;DHT22;8539;53.188;8.696;2024-01-07T13:59:08;4.60;99.90
16846;DHT22;8539;53.188;8.696;2024-01-07T14:01:37;4.60;99.90
16846;DHT22;8539;53.188;8.696;2024-01-07T14:04:05;4.70;99.90
16846;DHT22;8539;53.188;8.696;2024-01-07T14:06:33;5.00;99.90
16846;DHT22;8539;53.188;8.696;2024-01-07T14:09:00;5.00;99.90
16846;DHT22;8539;53.188;8.696;2024-01-07T14:11:26;4.70;99.90
16846;DHT22;8539;53.188;8.696;2024-01-07T14:13:53;4.00;99.90
16846;DHT22;8539;53.188;8.696;2024-01-07T14:16:19;3.10;99.90
16846;DHT22;8539;53.188;8.696;2024-01-07T14:18:45;2.60;99.90
16846;DHT22;8539;53.188;8.696;2024-01-07T14:21:11;2.20;99.90
16846;DHT22;8539;53.188;8.696;2024-01-07T14:23:37;1.70;99.90
16846;DHT22;8539;53.188;8.696;2024-01-07T14:26:03;1.20;99.90
16846;DHT22;8539;53.188;8.696;2024-01-07T14:28:29;0.80;99.90
16846;DHT22;8539;53.188;8.696;2024-01-07T14:30:55;0.60;99.90
16846;DHT22;8539;53.188;8.696;2024-01-07T14:33:21;0.30;99.90
16846;DHT22;8539;53.188;8.696;2024-01-07T14:35:47;0.10;99.90
16846;DHT22;8539;53.188;8.696;2024-01-07T14:38:12;-0.10;99.90
16846;DHT22;8539;53.188;8.696;2024-01-07T14:40:39;-0.20;99.90
16846;DHT22;8539;53.188;8.696;2024-01-07T14:43:06;-0.30;99.90
16846;DHT22;8539;53.188;8.696;2024-01-07T14:45:32;-0.40;99.90
16846;DHT22;8539;53.188;8.696;2024-01-07T14:47:58;-0.50;99.90
16846;DHT22;8539;53.188;8.696;2024-01-07T14:50:24;-0.60;99.90
16846;DHT22;8539;53.188;8.696;2024-01-07T14:52:50;-0.70;99.90
16846;DHT22;8539;53.188;8.696;2024-01-07T14:55:15;-0.80;99.90
16846;DHT22;8539;53.188;8.696;2024-01-07T14:57:41;-0.90;99.90
16846;DHT22;8539;53.188;8.696;2024-01-07T15:00:07;-0.80;99.90
16846;DHT22;8539;53.188;8.696;2024-01-07T15:02:34;-1.00;99.90
16846;DHT22;8539;53.188;8.696;2024-01-07T15:05:01;-1.10;99.90
16846;DHT22;8539;53.188;8.696;2024-01-07T15:07:27;-1.10;99.90
16846;DHT22;8539;53.188;8.696;2024-01-07T15:09:53;-1.20;99.90
16846;DHT22;8539;53.188;8.696;2024-01-07T15:12:19;-1.30;99.90
16846;DHT22;8539;53.188;8.696;2024-01-07T15:14:45;-1.30;99.90
16846;DHT22;8539;53.188;8.696;2024-01-07T15:17:11;-1.40;99.90
16846;DHT22;8539;53.188;8.696;2024-01-07T15:19:37;-1.40;99.90
16846;DHT22;8539;53.188;8.696;2024-01-07T15:22:03;-1.50;99.90
16846;DHT22;8539;53.188;8.696;2024-01-07T15:24:29;-1.50;99.90
16846;DHT22;8539;53.188;8.696;2024-01-07T15:26:55;-1.60;99.90
16846;DHT22;8539;53.188;8.696;2024-01-07T15:29:21;-1.60;99.90
16846;DHT22;8539;53.188;8.696;2024-01-07T15:31:47;-1.70;99.90
16846;DHT22;8539;53.188;8.696;2024-01-07T15:34:12;-1.70;99.90
16846;DHT22;8539;53.188;8.696;2024-01-07T15:36:38;-1.80;99.90
16846;DHT22;8539;53.188;8.696;2024-01-07T15:39:08;-1.80;99.90
16846;DHT22;8539;53.188;8.696;2024-01-07T15:41:36;-1.90;99.90
16846;DHT22;8539;53.188;8.696;2024-01-07T15:44:03;-1.90;99.90
16846;DHT22;8539;53.188;8.696;2024-01-07T15:46:29;-1.90;99.90
16846;DHT22;8539;53.188;8.696;2024-01-07T15:48:55;-1.80;99.90
16846;DHT22;8539;53.188;8.696;2024-01-07T15:51:21;-2.00;99.90